Chester, South Carolina
Current Conditions -  °F | °C
As of 12:35 PM on Thursday 23 Oct 2014 (Local Time) from KLKR Reporting Station
Clear Clear  
Wind Chill: 63°   Ceiling: Unl
Heat Index: 63°   Visibility: 10mi
Dew Point: 39°   Wind: 7mph
Humidity: 42%   Direction: 320°NW
Pressure: 30.07"   Gusts: NA
Location:  34.71°N, 81.21°W
Report Text: KLKR 231635Z AUTO 32006KT 10SM CLR 17/04 A3007 RMK AO2
Loading
Personal Weather Stations






























Interactive Weather Map
Tropical Storm Tracking
New forecast layout! Learn more

10-Day Weather Forecast

Advertisements
Track Severe Weather on mobile